sensor_id;sensor_type;location;lat;lon;timestamp;P1;durP1;ratioP1;P2;durP2;ratioP2
19946;SDS011;10135;50.702;7.276;2023-07-31T05:00:26;5.05;;;1.85;;
19946;SDS011;10135;50.702;7.276;2023-07-31T05:02:44;3.03;;;2.35;;
19946;SDS011;10135;50.702;7.276;2023-07-31T05:05:05;3.60;;;2.00;;
19946;SDS011;10135;50.702;7.276;2023-07-31T05:07:26;3.70;;;2.40;;
19946;SDS011;10135;50.702;7.276;2023-07-31T05:09:40;2.60;;;2.40;;
19946;SDS011;10135;50.702;7.276;2023-07-31T05:11:55;2.70;;;2.50;;
19946;SDS011;10135;50.702;7.276;2023-07-31T05:14:10;3.53;;;2.63;;
19946;SDS011;10135;50.702;7.276;2023-07-31T05:16:38;2.50;;;2.10;;
19946;SDS011;10135;50.702;7.276;2023-07-31T05:18:53;2.30;;;2.00;;
19946;SDS011;10135;50.702;7.276;2023-07-31T05:20:54;2.05;;;1.92;;
19946;SDS011;10135;50.702;7.276;2023-07-31T05:23:04;2.03;;;1.92;;
19946;SDS011;10135;50.702;7.276;2023-07-31T05:25:05;2.90;;;2.25;;
19946;SDS011;10135;50.702;7.276;2023-07-31T05:27:06;2.13;;;1.92;;
19946;SDS011;10135;50.702;7.276;2023-07-31T05:29:07;2.55;;;2.13;;
19946;SDS011;10135;50.702;7.276;2023-07-31T05:31:07;2.30;;;2.20;;
19946;SDS011;10135;50.702;7.276;2023-07-31T05:33:08;2.65;;;2.25;;
19946;SDS011;10135;50.702;7.276;2023-07-31T05:35:09;2.60;;;2.40;;
19946;SDS011;10135;50.702;7.276;2023-07-31T05:37:10;2.10;;;2.00;;
19946;SDS011;10135;50.702;7.276;2023-07-31T05:39:11;3.70;;;2.13;;
19946;SDS011;10135;50.702;7.276;2023-07-31T05:41:15;3.05;;;2.33;;
19946;SDS011;10135;50.702;7.276;2023-07-31T05:43:16;3.72;;;2.10;;
19946;SDS011;10135;50.702;7.276;2023-07-31T05:45:16;2.72;;;2.25;;
19946;SDS011;10135;50.702;7.276;2023-07-31T05:47:17;2.65;;;1.92;;
19946;SDS011;10135;50.702;7.276;2023-07-31T05:49:18;2.38;;;2.17;;
19946;SDS011;10135;50.702;7.276;2023-07-31T05:51:18;2.50;;;2.10;;
19946;SDS011;10135;50.702;7.276;2023-07-31T05:53:19;2.92;;;2.60;;
19946;SDS011;10135;50.702;7.276;2023-07-31T05:55:20;2.55;;;1.95;;
19946;SDS011;10135;50.702;7.276;2023-07-31T05:57:21;2.45;;;2.25;;
19946;SDS011;10135;50.702;7.276;2023-07-31T05:59:21;2.45;;;2.25;;
19946;SDS011;10135;50.702;7.276;2023-07-31T06:01:22;1.80;;;1.70;;
19946;SDS011;10135;50.702;7.276;2023-07-31T06:03:23;2.83;;;2.22;;
19946;SDS011;10135;50.702;7.276;2023-07-31T06:05:23;3.65;;;2.28;;
19946;SDS011;10135;50.702;7.276;2023-07-31T06:07:24;2.33;;;2.20;;
19946;SDS011;10135;50.702;7.276;2023-07-31T06:09:25;2.42;;;2.22;;
19946;SDS011;10135;50.702;7.276;2023-07-31T06:11:26;2.30;;;2.20;;
19946;SDS011;10135;50.702;7.276;2023-07-31T06:13:26;2.38;;;2.17;;
19946;SDS011;10135;50.702;7.276;2023-07-31T06:15:27;3.55;;;2.50;;
19946;SDS011;10135;50.702;7.276;2023-07-31T06:17:28;2.40;;;2.28;;
19946;SDS011;10135;50.702;7.276;2023-07-31T06:19:29;3.00;;;2.80;;
19946;SDS011;10135;50.702;7.276;2023-07-31T06:21:30;3.67;;;2.60;;
19946;SDS011;10135;50.702;7.276;2023-07-31T06:23:31;2.53;;;2.22;;
19946;SDS011;10135;50.702;7.276;2023-07-31T06:25:32;2.15;;;1.95;;
19946;SDS011;10135;50.702;7.276;2023-07-31T06:27:33;2.47;;;2.28;;
19946;SDS011;10135;50.702;7.276;2023-07-31T06:29:34;2.50;;;2.30;;
19946;SDS011;10135;50.702;7.276;2023-07-31T06:31:35;2.40;;;2.30;;
19946;SDS011;10135;50.702;7.276;2023-07-31T06:33:35;3.13;;;2.40;;
19946;SDS011;10135;50.702;7.276;2023-07-31T06:35:36;2.47;;;2.28;;
19946;SDS011;10135;50.702;7.276;2023-07-31T06:37:37;2.55;;;2.35;;
19946;SDS011;10135;50.702;7.276;2023-07-31T06:39:40;2.80;;;2.50;;
19946;SDS011;10135;50.702;7.276;2023-07-31T06:41:41;2.10;;;2.00;;
19946;SDS011;10135;50.702;7.276;2023-07-31T06:43:42;2.50;;;2.30;;
19946;SDS011;10135;50.702;7.276;2023-07-31T06:45:43;2.55;;;2.35;;
19946;SDS011;10135;50.702;7.276;2023-07-31T06:47:44;3.17;;;2.28;;
19946;SDS011;10135;50.702;7.276;2023-07-31T06:49:45;2.60;;;2.40;;
19946;SDS011;10135;50.702;7.276;2023-07-31T06:51:45;4.25;;;2.30;;
19946;SDS011;10135;50.702;7.276;2023-07-31T06:53:46;3.47;;;2.70;;
19946;SDS011;10135;50.702;7.276;2023-07-31T06:55:47;2.42;;;2.17;;
19946;SDS011;10135;50.702;7.276;2023-07-31T06:57:48;2.80;;;2.53;;
19946;SDS011;10135;50.702;7.276;2023-07-31T06:59:50;3.05;;;2.50;;
19946;SDS011;10135;50.702;7.276;2023-07-31T07:01:51;2.75;;;2.30;;
19946;SDS011;10135;50.702;7.276;2023-07-31T07:03:52;2.30;;;2.10;;
19946;SDS011;10135;50.702;7.276;2023-07-31T07:05:53;2.45;;;2.35;;
19946;SDS011;10135;50.702;7.276;2023-07-31T07:07:53;2.40;;;2.20;;
19946;SDS011;10135;50.702;7.276;2023-07-31T07:09:54;2.65;;;2.40;;
19946;SDS011;10135;50.702;7.276;2023-07-31T07:11:55;2.30;;;2.15;;
19946;SDS011;10135;50.702;7.276;2023-07-31T07:13:55;2.45;;;2.22;;
19946;SDS011;10135;50.702;7.276;2023-07-31T07:15:56;3.63;;;2.33;;
19946;SDS011;10135;50.702;7.276;2023-07-31T07:17:57;3.00;;;2.40;;
19946;SDS011;10135;50.702;7.276;2023-07-31T07:19:57;2.20;;;2.10;;
19946;SDS011;10135;50.702;7.276;2023-07-31T07:21:59;3.35;;;2.35;;
19946;SDS011;10135;50.702;7.276;2023-07-31T07:24:01;2.75;;;2.33;;
19946;SDS011;10135;50.702;7.276;2023-07-31T07:26:02;2.58;;;2.38;;
19946;SDS011;10135;50.702;7.276;2023-07-31T07:28:03;2.70;;;2.50;;
19946;SDS011;10135;50.702;7.276;2023-07-31T07:30:04;2.47;;;2.28;;
19946;SDS011;10135;50.702;7.276;2023-07-31T07:32:21;2.58;;;2.42;;
19946;SDS011;10135;50.702;7.276;2023-07-31T07:34:30;3.75;;;2.50;;
19946;SDS011;10135;50.702;7.276;2023-07-31T07:36:37;2.22;;;2.03;;
19946;SDS011;10135;50.702;7.276;2023-07-31T07:38:58;2.75;;;2.55;;
19946;SDS011;10135;50.702;7.276;2023-07-31T07:41:19;3.70;;;2.63;;
19946;SDS011;10135;50.702;7.276;2023-07-31T07:43:23;3.38;;;2.28;;
19946;SDS011;10135;50.702;7.276;2023-07-31T07:45:27;2.85;;;2.50;;
19946;SDS011;10135;50.702;7.276;2023-07-31T07:47:48;2.88;;;2.60;;
19946;SDS011;10135;50.702;7.276;2023-07-31T07:49:54;2.90;;;2.58;;
19946;SDS011;10135;50.702;7.276;2023-07-31T07:52:20;3.20;;;2.40;;
19946;SDS011;10135;50.702;7.276;2023-07-31T07:54:36;3.20;;;2.63;;
19946;SDS011;10135;50.702;7.276;2023-07-31T07:56:37;3.97;;;2.60;;
19946;SDS011;10135;50.702;7.276;2023-07-31T07:58:44;4.82;;;2.72;;
19946;SDS011;10135;50.702;7.276;2023-07-31T08:00:50;3.20;;;2.65;;
19946;SDS011;10135;50.702;7.276;2023-07-31T08:03:10;5.28;;;2.83;;
19946;SDS011;10135;50.702;7.276;2023-07-31T08:05:23;4.28;;;2.50;;
19946;SDS011;10135;50.702;7.276;2023-07-31T08:07:26;2.88;;;2.60;;
19946;SDS011;10135;50.702;7.276;2023-07-31T08:09:27;5.63;;;2.50;;
19946;SDS011;10135;50.702;7.276;2023-07-31T08:11:28;4.03;;;2.78;;
19946;SDS011;10135;50.702;7.276;2023-07-31T08:13:28;5.50;;;2.83;;
19946;SDS011;10135;50.702;7.276;2023-07-31T08:15:29;3.70;;;2.80;;
19946;SDS011;10135;50.702;7.276;2023-07-31T08:17:30;3.22;;;2.80;;
19946;SDS011;10135;50.702;7.276;2023-07-31T08:19:31;4.07;;;2.83;;
19946;SDS011;10135;50.702;7.276;2023-07-31T08:21:31;2.70;;;2.50;;
19946;SDS011;10135;50.702;7.276;2023-07-31T08:23:32;3.72;;;2.67;;
19946;SDS011;10135;50.702;7.276;2023-07-31T08:25:34;3.42;;;2.70;;
19946;SDS011;10135;50.702;7.276;2023-07-31T08:27:36;2.88;;;2.22;;
19946;SDS011;10135;50.702;7.276;2023-07-31T08:29:37;2.97;;;2.65;;
19946;SDS011;10135;50.702;7.276;2023-07-31T08:31:37;3.45;;;2.67;;
19946;SDS011;10135;50.702;7.276;2023-07-31T08:33:38;3.60;;;2.60;;
19946;SDS011;10135;50.702;7.276;2023-07-31T08:35:40;3.33;;;2.65;;
19946;SDS011;10135;50.702;7.276;2023-07-31T08:37:40;3.90;;;3.20;;
19946;SDS011;10135;50.702;7.276;2023-07-31T08:39:41;4.72;;;2.58;;
19946;SDS011;10135;50.702;7.276;2023-07-31T08:41:41;2.83;;;2.60;;
19946;SDS011;10135;50.702;7.276;2023-07-31T08:43:42;4.47;;;2.63;;
19946;SDS011;10135;50.702;7.276;2023-07-31T08:45:46;2.80;;;2.60;;
19946;SDS011;10135;50.702;7.276;2023-07-31T08:47:49;2.88;;;2.58;;
19946;SDS011;10135;50.702;7.276;2023-07-31T08:49:52;3.05;;;2.70;;
19946;SDS011;10135;50.702;7.276;2023-07-31T08:51:54;3.42;;;2.55;;
19946;SDS011;10135;50.702;7.276;2023-07-31T08:53:57;2.83;;;2.45;;
19946;SDS011;10135;50.702;7.276;2023-07-31T08:55:58;2.65;;;2.45;;
19946;SDS011;10135;50.702;7.276;2023-07-31T08:58:00;2.50;;;2.30;;
19946;SDS011;10135;50.702;7.276;2023-07-31T09:00:04;3.05;;;2.58;;
19946;SDS011;10135;50.702;7.276;2023-07-31T09:02:07;3.42;;;2.30;;
19946;SDS011;10135;50.702;7.276;2023-07-31T09:04:09;2.72;;;2.40;;
19946;SDS011;10135;50.702;7.276;2023-07-31T09:06:12;2.50;;;2.30;;
19946;SDS011;10135;50.702;7.276;2023-07-31T09:08:21;3.85;;;2.53;;
19946;SDS011;10135;50.702;7.276;2023-07-31T09:10:22;3.35;;;2.20;;
19946;SDS011;10135;50.702;7.276;2023-07-31T09:12:24;3.85;;;2.53;;
19946;SDS011;10135;50.702;7.276;2023-07-31T09:14:26;2.63;;;2.42;;
19946;SDS011;10135;50.702;7.276;2023-07-31T09:16:29;2.70;;;2.50;;
19946;SDS011;10135;50.702;7.276;2023-07-31T09:18:38;3.47;;;2.58;;
19946;SDS011;10135;50.702;7.276;2023-07-31T09:23:12;3.22;;;2.78;;
19946;SDS011;10135;50.702;7.276;2023-07-31T09:25:15;3.17;;;2.30;;
19946;SDS011;10135;50.702;7.276;2023-07-31T09:27:24;3.45;;;2.33;;
19946;SDS011;10135;50.702;7.276;2023-07-31T09:29:26;2.83;;;2.30;;
19946;SDS011;10135;50.702;7.276;2023-07-31T09:31:33;2.58;;;2.38;;
19946;SDS011;10135;50.702;7.276;2023-07-31T09:33:54;3.08;;;2.00;;
19946;SDS011;10135;50.702;7.276;2023-07-31T09:35:58;4.05;;;2.22;;
19946;SDS011;10135;50.702;7.276;2023-07-31T09:38:03;3.47;;;2.35;;
19946;SDS011;10135;50.702;7.276;2023-07-31T09:40:06;2.60;;;2.40;;
19946;SDS011;10135;50.702;7.276;2023-07-31T09:42:07;3.58;;;2.13;;
19946;SDS011;10135;50.702;7.276;2023-07-31T09:44:09;3.55;;;2.17;;
19946;SDS011;10135;50.702;7.276;2023-07-31T09:46:13;2.20;;;2.10;;
19946;SDS011;10135;50.702;7.276;2023-07-31T09:48:15;3.78;;;2.20;;
19946;SDS011;10135;50.702;7.276;2023-07-31T09:50:19;2.25;;;2.05;;
19946;SDS011;10135;50.702;7.276;2023-07-31T09:52:22;3.60;;;2.10;;
19946;SDS011;10135;50.702;7.276;2023-07-31T09:54:26;2.63;;;2.30;;
19946;SDS011;10135;50.702;7.276;2023-07-31T09:56:26;2.40;;;2.20;;
19946;SDS011;10135;50.702;7.276;2023-07-31T09:58:28;2.45;;;2.28;;
19946;SDS011;10135;50.702;7.276;2023-07-31T10:00:30;2.90;;;2.30;;
19946;SDS011;10135;50.702;7.276;2023-07-31T10:02:31;2.60;;;2.40;;
19946;SDS011;10135;50.702;7.276;2023-07-31T10:04:33;3.47;;;2.05;;
19946;SDS011;10135;50.702;7.276;2023-07-31T10:06:34;2.72;;;2.20;;
19946;SDS011;10135;50.702;7.276;2023-07-31T10:08:35;2.58;;;2.38;;
19946;SDS011;10135;50.702;7.276;2023-07-31T10:10:37;2.25;;;2.13;;
19946;SDS011;10135;50.702;7.276;2023-07-31T10:12:43;2.22;;;2.10;;
19946;SDS011;10135;50.702;7.276;2023-07-31T10:14:46;5.93;;;2.20;;
19946;SDS011;10135;50.702;7.276;2023-07-31T10:16:47;1.98;;;1.88;;
19946;SDS011;10135;50.702;7.276;2023-07-31T10:18:49;3.88;;;2.13;;
19946;SDS011;10135;50.702;7.276;2023-07-31T10:20:52;2.97;;;1.90;;
19946;SDS011;10135;50.702;7.276;2023-07-31T10:22:55;2.38;;;2.08;;
19946;SDS011;10135;50.702;7.276;2023-07-31T10:24:58;2.22;;;1.98;;
19946;SDS011;10135;50.702;7.276;2023-07-31T10:27:00;3.50;;;2.13;;
19946;SDS011;10135;50.702;7.276;2023-07-31T10:29:03;2.38;;;2.17;;
19946;SDS011;10135;50.702;7.276;2023-07-31T10:31:05;1.80;;;1.70;;
19946;SDS011;10135;50.702;7.276;2023-07-31T10:33:07;3.50;;;2.03;;
19946;SDS011;10135;50.702;7.276;2023-07-31T10:35:08;1.80;;;1.70;;
19946;SDS011;10135;50.702;7.276;2023-07-31T10:37:20;1.88;;;1.77;;
19946;SDS011;10135;50.702;7.276;2023-07-31T10:39:36;1.83;;;1.65;;
19946;SDS011;10135;50.702;7.276;2023-07-31T10:41:41;2.65;;;1.90;;
19946;SDS011;10135;50.702;7.276;2023-07-31T10:46:50;2.78;;;1.60;;
19946;SDS011;10135;50.702;7.276;2023-07-31T10:49:34;1.90;;;1.80;;
19946;SDS011;10135;50.702;7.276;2023-07-31T10:54:29;1.90;;;1.80;;
19946;SDS011;10135;50.702;7.276;2023-07-31T10:56:40;1.75;;;1.65;;
19946;SDS011;10135;50.702;7.276;2023-07-31T10:59:34;2.33;;;1.67;;
19946;SDS011;10135;50.702;7.276;2023-07-31T11:01:51;1.70;;;1.58;;
19946;SDS011;10135;50.702;7.276;2023-07-31T11:04:09;1.90;;;1.58;;
19946;SDS011;10135;50.702;7.276;2023-07-31T11:06:29;1.60;;;1.50;;
19946;SDS011;10135;50.702;7.276;2023-07-31T11:08:45;1.70;;;1.60;;
19946;SDS011;10135;50.702;7.276;2023-07-31T11:13:10;1.40;;;1.40;;
19946;SDS011;10135;50.702;7.276;2023-07-31T11:15:28;4.55;;;1.70;;
19946;SDS011;10135;50.702;7.276;2023-07-31T11:17:28;1.75;;;1.60;;
19946;SDS011;10135;50.702;7.276;2023-07-31T11:20:29;1.50;;;1.50;;
19946;SDS011;10135;50.702;7.276;2023-07-31T11:22:44;1.73;;;1.63;;
19946;SDS011;10135;50.702;7.276;2023-07-31T11:24:50;2.38;;;1.35;;
19946;SDS011;10135;50.702;7.276;2023-07-31T11:27:07;1.20;;;1.20;;
19946;SDS011;10135;50.702;7.276;2023-07-31T11:29:25;1.45;;;1.45;;
19946;SDS011;10135;50.702;7.276;2023-07-31T11:31:57;1.42;;;1.42;;
19946;SDS011;10135;50.702;7.276;2023-07-31T11:34:06;1.50;;;1.30;;
19946;SDS011;10135;50.702;7.276;2023-07-31T11:36:13;1.70;;;1.60;;
19946;SDS011;10135;50.702;7.276;2023-07-31T11:40:28;1.55;;;1.45;;
19946;SDS011;10135;50.702;7.276;2023-07-31T11:42:37;1.20;;;1.20;;
19946;SDS011;10135;50.702;7.276;2023-07-31T11:44:44;1.48;;;1.38;;
19946;SDS011;10135;50.702;7.276;2023-07-31T11:46:50;1.30;;;1.20;;
19946;SDS011;10135;50.702;7.276;2023-07-31T11:49:03;1.45;;;1.38;;
19946;SDS011;10135;50.702;7.276;2023-07-31T11:51:04;1.33;;;1.33;;
19946;SDS011;10135;50.702;7.276;2023-07-31T11:53:08;1.65;;;1.42;;
19946;SDS011;10135;50.702;7.276;2023-07-31T11:55:10;1.40;;;1.40;;
19946;SDS011;10135;50.702;7.276;2023-07-31T11:57:12;1.63;;;1.50;;
19946;SDS011;10135;50.702;7.276;2023-07-31T11:59:13;1.50;;;1.50;;
19946;SDS011;10135;50.702;7.276;2023-07-31T12:01:15;2.25;;;1.42;;
19946;SDS011;10135;50.702;7.276;2023-07-31T12:03:19;1.40;;;1.10;;
19946;SDS011;10135;50.702;7.276;2023-07-31T12:05:20;1.30;;;1.20;;
19946;SDS011;10135;50.702;7.276;2023-07-31T12:07:23;3.10;;;1.50;;
19946;SDS011;10135;50.702;7.276;2023-07-31T12:09:24;1.50;;;1.40;;
19946;SDS011;10135;50.702;7.276;2023-07-31T12:11:26;1.30;;;1.30;;
19946;SDS011;10135;50.702;7.276;2023-07-31T12:13:27;1.17;;;1.17;;
19946;SDS011;10135;50.702;7.276;2023-07-31T12:15:40;1.08;;;1.08;;
19946;SDS011;10135;50.702;7.276;2023-07-31T12:17:43;1.42;;;1.33;;
19946;SDS011;10135;50.702;7.276;2023-07-31T12:19:48;1.10;;;1.10;;
19946;SDS011;10135;50.702;7.276;2023-07-31T12:21:49;1.27;;;1.27;;
19946;SDS011;10135;50.702;7.276;2023-07-31T12:23:51;1.13;;;1.13;;
19946;SDS011;10135;50.702;7.276;2023-07-31T12:28:13;1.25;;;1.20;;
19946;SDS011;10135;50.702;7.276;2023-07-31T12:30:26;1.45;;;1.42;;
19946;SDS011;10135;50.702;7.276;2023-07-31T12:32:34;1.45;;;1.38;;
19946;SDS011;10135;50.702;7.276;2023-07-31T12:34:35;1.27;;;1.27;;
19946;SDS011;10135;50.702;7.276;2023-07-31T12:36:43;1.50;;;1.45;;
19946;SDS011;10135;50.702;7.276;2023-07-31T12:38:44;2.90;;;1.70;;
19946;SDS011;10135;50.702;7.276;2023-07-31T12:40:46;1.83;;;1.73;;
19946;SDS011;10135;50.702;7.276;2023-07-31T12:42:46;3.83;;;1.92;;
19946;SDS011;10135;50.702;7.276;2023-07-31T12:44:47;2.05;;;1.95;;
19946;SDS011;10135;50.702;7.276;2023-07-31T12:46:48;2.20;;;2.10;;
19946;SDS011;10135;50.702;7.276;2023-07-31T12:48:49;2.05;;;1.95;;
19946;SDS011;10135;50.702;7.276;2023-07-31T12:50:49;2.30;;;2.20;;
19946;SDS011;10135;50.702;7.276;2023-07-31T12:52:50;2.42;;;2.33;;
19946;SDS011;10135;50.702;7.276;2023-07-31T12:54:53;2.40;;;2.20;;
19946;SDS011;10135;50.702;7.276;2023-07-31T12:56:53;2.38;;;2.25;;
19946;SDS011;10135;50.702;7.276;2023-07-31T12:58:54;2.33;;;2.22;;
19946;SDS011;10135;50.702;7.276;2023-07-31T13:00:54;2.35;;;2.25;;
19946;SDS011;10135;50.702;7.276;2023-07-31T13:02:55;2.53;;;2.33;;
19946;SDS011;10135;50.702;7.276;2023-07-31T13:04:56;2.95;;;2.63;;
19946;SDS011;10135;50.702;7.276;2023-07-31T13:06:56;2.78;;;2.58;;
19946;SDS011;10135;50.702;7.276;2023-07-31T13:08:58;2.45;;;2.35;;
19946;SDS011;10135;50.702;7.276;2023-07-31T13:10:58;2.25;;;2.15;;
19946;SDS011;10135;50.702;7.276;2023-07-31T13:12:59;3.05;;;2.85;;
19946;SDS011;10135;50.702;7.276;2023-07-31T13:15:00;2.95;;;2.47;;
19946;SDS011;10135;50.702;7.276;2023-07-31T13:17:00;2.83;;;2.65;;
19946;SDS011;10135;50.702;7.276;2023-07-31T13:19:01;3.30;;;2.88;;
19946;SDS011;10135;50.702;7.276;2023-07-31T13:21:02;3.08;;;2.88;;
19946;SDS011;10135;50.702;7.276;2023-07-31T13:23:02;2.25;;;2.13;;
19946;SDS011;10135;50.702;7.276;2023-07-31T13:25:03;2.70;;;2.50;;
19946;SDS011;10135;50.702;7.276;2023-07-31T13:27:05;2.80;;;2.60;;
19946;SDS011;10135;50.702;7.276;2023-07-31T13:29:06;3.72;;;2.67;;
19946;SDS011;10135;50.702;7.276;2023-07-31T13:31:06;2.65;;;2.45;;
19946;SDS011;10135;50.702;7.276;2023-07-31T13:33:07;2.72;;;2.53;;
19946;SDS011;10135;50.702;7.276;2023-07-31T13:35:09;3.00;;;2.80;;
19946;SDS011;10135;50.702;7.276;2023-07-31T13:37:12;3.10;;;2.90;;
19946;SDS011;10135;50.702;7.276;2023-07-31T13:39:13;2.97;;;2.78;;
19946;SDS011;10135;50.702;7.276;2023-07-31T13:41:13;2.70;;;2.50;;
19946;SDS011;10135;50.702;7.276;2023-07-31T13:43:14;2.50;;;2.30;;
19946;SDS011;10135;50.702;7.276;2023-07-31T13:45:14;3.22;;;2.40;;
19946;SDS011;10135;50.702;7.276;2023-07-31T13:47:15;2.25;;;2.10;;
19946;SDS011;10135;50.702;7.276;2023-07-31T13:49:16;2.30;;;2.20;;
19946;SDS011;10135;50.702;7.276;2023-07-31T13:51:16;2.40;;;2.30;;
19946;SDS011;10135;50.702;7.276;2023-07-31T13:53:17;2.15;;;2.00;;
19946;SDS011;10135;50.702;7.276;2023-07-31T13:55:18;2.08;;;1.98;;
19946;SDS011;10135;50.702;7.276;2023-07-31T13:57:18;2.00;;;1.90;;
19946;SDS011;10135;50.702;7.276;2023-07-31T13:59:19;1.67;;;1.65;;
19946;SDS011;10135;50.702;7.276;2023-07-31T14:01:20;1.90;;;1.80;;
19946;SDS011;10135;50.702;7.276;2023-07-31T14:03:21;2.15;;;1.80;;
19946;SDS011;10135;50.702;7.276;2023-07-31T14:05:21;2.15;;;2.00;;
19946;SDS011;10135;50.702;7.276;2023-07-31T14:07:22;1.70;;;1.60;;
19946;SDS011;10135;50.702;7.276;2023-07-31T14:09:23;1.58;;;1.58;;
19946;SDS011;10135;50.702;7.276;2023-07-31T14:11:23;2.03;;;1.90;;
19946;SDS011;10135;50.702;7.276;2023-07-31T14:13:24;2.83;;;1.90;;
19946;SDS011;10135;50.702;7.276;2023-07-31T14:15:25;2.00;;;1.90;;
19946;SDS011;10135;50.702;7.276;2023-07-31T14:17:25;1.80;;;1.70;;
19946;SDS011;10135;50.702;7.276;2023-07-31T14:19:26;1.80;;;1.70;;
19946;SDS011;10135;50.702;7.276;2023-07-31T14:21:26;1.77;;;1.67;;
19946;SDS011;10135;50.702;7.276;2023-07-31T14:23:27;1.80;;;1.70;;
19946;SDS011;10135;50.702;7.276;2023-07-31T14:25:28;2.92;;;1.83;;
19946;SDS011;10135;50.702;7.276;2023-07-31T14:27:28;2.00;;;1.90;;
19946;SDS011;10135;50.702;7.276;2023-07-31T14:29:29;1.73;;;1.63;;
19946;SDS011;10135;50.702;7.276;2023-07-31T14:31:30;1.80;;;1.70;;
19946;SDS011;10135;50.702;7.276;2023-07-31T14:33:31;2.45;;;2.00;;
19946;SDS011;10135;50.702;7.276;2023-07-31T14:35:32;2.05;;;1.67;;
19946;SDS011;10135;50.702;7.276;2023-07-31T14:37:38;1.65;;;1.45;;
19946;SDS011;10135;50.702;7.276;2023-07-31T14:39:44;1.80;;;1.70;;
19946;SDS011;10135;50.702;7.276;2023-07-31T14:41:45;1.75;;;1.70;;
19946;SDS011;10135;50.702;7.276;2023-07-31T14:43:46;1.40;;;1.40;;
19946;SDS011;10135;50.702;7.276;2023-07-31T14:45:48;1.50;;;1.50;;
19946;SDS011;10135;50.702;7.276;2023-07-31T14:47:49;1.65;;;1.55;;
19946;SDS011;10135;50.702;7.276;2023-07-31T14:49:50;1.60;;;1.60;;
19946;SDS011;10135;50.702;7.276;2023-07-31T14:51:50;1.70;;;1.70;;
19946;SDS011;10135;50.702;7.276;2023-07-31T14:53:51;1.63;;;1.45;;
19946;SDS011;10135;50.702;7.276;2023-07-31T14:55:51;1.58;;;1.48;;
19946;SDS011;10135;50.702;7.276;2023-07-31T14:57:52;1.30;;;1.30;;
19946;SDS011;10135;50.702;7.276;2023-07-31T14:59:53;1.50;;;1.50;;
19946;SDS011;10135;50.702;7.276;2023-07-31T15:01:54;1.85;;;1.45;;
19946;SDS011;10135;50.702;7.276;2023-07-31T15:03:54;5.28;;;1.50;;
19946;SDS011;10135;50.702;7.276;2023-07-31T15:05:55;1.48;;;1.48;;
19946;SDS011;10135;50.702;7.276;2023-07-31T15:07:56;1.92;;;1.83;;
19946;SDS011;10135;50.702;7.276;2023-07-31T15:09:56;1.77;;;1.65;;
19946;SDS011;10135;50.702;7.276;2023-07-31T15:11:57;1.30;;;1.30;;
19946;SDS011;10135;50.702;7.276;2023-07-31T15:13:58;1.70;;;1.60;;
19946;SDS011;10135;50.702;7.276;2023-07-31T15:15:59;1.75;;;1.63;;
19946;SDS011;10135;50.702;7.276;2023-07-31T15:17:59;1.65;;;1.55;;
19946;SDS011;10135;50.702;7.276;2023-07-31T15:20:00;1.52;;;1.45;;
19946;SDS011;10135;50.702;7.276;2023-07-31T15:22:01;1.50;;;1.50;;
19946;SDS011;10135;50.702;7.276;2023-07-31T15:24:03;1.27;;;1.27;;
19946;SDS011;10135;50.702;7.276;2023-07-31T15:26:04;1.50;;;1.40;;
19946;SDS011;10135;50.702;7.276;2023-07-31T15:28:05;1.63;;;1.58;;
19946;SDS011;10135;50.702;7.276;2023-07-31T15:30:07;1.73;;;1.60;;
19946;SDS011;10135;50.702;7.276;2023-07-31T15:32:08;1.60;;;1.60;;
19946;SDS011;10135;50.702;7.276;2023-07-31T15:34:09;1.35;;;1.27;;
19946;SDS011;10135;50.702;7.276;2023-07-31T15:36:10;1.85;;;1.75;;
19946;SDS011;10135;50.702;7.276;2023-07-31T15:38:10;1.73;;;1.63;;
19946;SDS011;10135;50.702;7.276;2023-07-31T15:40:11;1.50;;;1.50;;
19946;SDS011;10135;50.702;7.276;2023-07-31T15:42:12;1.48;;;1.48;;
19946;SDS011;10135;50.702;7.276;2023-07-31T15:44:13;1.52;;;1.50;;
19946;SDS011;10135;50.702;7.276;2023-07-31T15:46:13;1.50;;;1.40;;
19946;SDS011;10135;50.702;7.276;2023-07-31T15:48:14;1.73;;;1.70;;
19946;SDS011;10135;50.702;7.276;2023-07-31T15:50:15;1.90;;;1.80;;
19946;SDS011;10135;50.702;7.276;2023-07-31T15:52:15;1.45;;;1.45;;
19946;SDS011;10135;50.702;7.276;2023-07-31T15:54:16;1.88;;;1.70;;
19946;SDS011;10135;50.702;7.276;2023-07-31T15:56:18;1.83;;;1.55;;
19946;SDS011;10135;50.702;7.276;2023-07-31T15:58:19;1.50;;;1.50;;
19946;SDS011;10135;50.702;7.276;2023-07-31T16:00:20;1.80;;;1.70;;
19946;SDS011;10135;50.702;7.276;2023-07-31T16:02:20;2.00;;;1.90;;
19946;SDS011;10135;50.702;7.276;2023-07-31T16:04:21;1.90;;;1.80;;
19946;SDS011;10135;50.702;7.276;2023-07-31T16:06:21;1.80;;;1.70;;
19946;SDS011;10135;50.702;7.276;2023-07-31T16:08:22;1.83;;;1.73;;
19946;SDS011;10135;50.702;7.276;2023-07-31T16:10:23;1.98;;;1.88;;
19946;SDS011;10135;50.702;7.276;2023-07-31T16:12:23;2.00;;;1.90;;
19946;SDS011;10135;50.702;7.276;2023-07-31T16:14:24;2.33;;;2.10;;
19946;SDS011;10135;50.702;7.276;2023-07-31T16:16:25;2.10;;;2.00;;
19946;SDS011;10135;50.702;7.276;2023-07-31T16:18:27;2.38;;;2.15;;
19946;SDS011;10135;50.702;7.276;2023-07-31T16:20:28;2.88;;;2.13;;
19946;SDS011;10135;50.702;7.276;2023-07-31T16:22:29;2.17;;;2.08;;
19946;SDS011;10135;50.702;7.276;2023-07-31T16:24:30;2.85;;;2.10;;
19946;SDS011;10135;50.702;7.276;2023-07-31T16:26:31;2.92;;;2.20;;
19946;SDS011;10135;50.702;7.276;2023-07-31T16:28:33;2.40;;;2.28;;
19946;SDS011;10135;50.702;7.276;2023-07-31T16:30:33;2.28;;;2.17;;
19946;SDS011;10135;50.702;7.276;2023-07-31T16:32:35;2.40;;;2.20;;
19946;SDS011;10135;50.702;7.276;2023-07-31T16:34:36;2.40;;;2.20;;
19946;SDS011;10135;50.702;7.276;2023-07-31T16:36:37;3.30;;;2.47;;
19946;SDS011;10135;50.702;7.276;2023-07-31T16:38:38;2.75;;;2.30;;
19946;SDS011;10135;50.702;7.276;2023-07-31T16:40:38;2.75;;;2.55;;
19946;SDS011;10135;50.702;7.276;2023-07-31T16:42:39;3.55;;;2.63;;
19946;SDS011;10135;50.702;7.276;2023-07-31T16:44:40;2.47;;;2.33;;
19946;SDS011;10135;50.702;7.276;2023-07-31T16:46:41;2.30;;;2.17;;
19946;SDS011;10135;50.702;7.276;2023-07-31T16:48:41;2.60;;;2.40;;
19946;SDS011;10135;50.702;7.276;2023-07-31T16:50:42;2.63;;;2.42;;
19946;SDS011;10135;50.702;7.276;2023-07-31T16:52:43;2.58;;;2.35;;
19946;SDS011;10135;50.702;7.276;2023-07-31T16:54:44;4.00;;;2.75;;
19946;SDS011;10135;50.702;7.276;2023-07-31T16:56:45;2.33;;;2.03;;
19946;SDS011;10135;50.702;7.276;2023-07-31T16:58:48;2.40;;;2.25;;
19946;SDS011;10135;50.702;7.276;2023-07-31T17:00:49;2.60;;;2.40;;
19946;SDS011;10135;50.702;7.276;2023-07-31T17:02:49;2.83;;;2.53;;
19946;SDS011;10135;50.702;7.276;2023-07-31T17:04:50;4.60;;;2.42;;
19946;SDS011;10135;50.702;7.276;2023-07-31T17:06:51;2.75;;;2.40;;
19946;SDS011;10135;50.702;7.276;2023-07-31T17:08:51;3.42;;;2.25;;
19946;SDS011;10135;50.702;7.276;2023-07-31T17:10:52;2.58;;;2.38;;
19946;SDS011;10135;50.702;7.276;2023-07-31T17:12:53;4.63;;;2.28;;
19946;SDS011;10135;50.702;7.276;2023-07-31T17:14:53;2.30;;;2.10;;
19946;SDS011;10135;50.702;7.276;2023-07-31T17:16:54;2.30;;;1.90;;
19946;SDS011;10135;50.702;7.276;2023-07-31T17:18:55;2.35;;;2.15;;
19946;SDS011;10135;50.702;7.276;2023-07-31T17:20:55;2.08;;;1.88;;
19946;SDS011;10135;50.702;7.276;2023-07-31T17:22:56;1.95;;;1.85;;
19946;SDS011;10135;50.702;7.276;2023-07-31T17:24:57;2.97;;;2.40;;
19946;SDS011;10135;50.702;7.276;2023-07-31T17:26:57;2.10;;;2.00;;
19946;SDS011;10135;50.702;7.276;2023-07-31T17:28:58;2.40;;;2.20;;
19946;SDS011;10135;50.702;7.276;2023-07-31T17:31:01;2.40;;;2.28;;
19946;SDS011;10135;50.702;7.276;2023-07-31T17:33:02;2.33;;;2.03;;
19946;SDS011;10135;50.702;7.276;2023-07-31T17:35:03;2.72;;;2.33;;
19946;SDS011;10135;50.702;7.276;2023-07-31T17:37:04;2.45;;;2.25;;
19946;SDS011;10135;50.702;7.276;2023-07-31T17:39:05;2.13;;;1.90;;